CheckWX is a tool to help pilots better visualize weather data.  It is not intended as a substitute for an official pre-flight weather briefing.

12:20:19 UTC

K9MN METAR
Rochester
Rochester, Minnesota, USA
Current

5 mins ago

K9MN 181215Z AUTO 31004KT 10SM SCT019 OVC026 M13/M15 A3028 RMK AO1 T11331150
Observed
Feb-18 @ 12:15 UTC
Wind
  • 310° at 4 KTS
Visibility
10 SM
Flight Rules
MVFR
Cloud Levels
  • Scattered at 1,900' AGL
  • Overcast at 2,600' AGL
Temperature
-13°C / 9°F
Dewpoint
-15°C / 5°F
Humidity
85%
Altimeter
30.28" Hg
Pressure
1025.42 hPa
Previous

24 mins ago

K9MN 181156Z AUTO 30005KT 7SM OVC028 M13/M15 A3026 RMK AO1 T11311148 11082 21132
Observed
Feb-18 @ 11:56 UTC
Wind
  • 300° at 5 KTS
Visibility
7 SM
Flight Rules
MVFR
Cloud Levels
  • Overcast at 2,800' AGL
Temperature
-13°C / 9°F
Dewpoint
-15°C / 5°F
Humidity
85%
Altimeter
30.26" Hg
Pressure
1024.72 hPa
Previous

45 mins ago

K9MN 181135Z AUTO 31004KT 10SM BKN028 M13/M15 A3026 RMK AO1 T11321150
Observed
Feb-18 @ 11:35 UTC
Wind
  • 310° at 4 KTS
Visibility
10 SM
Flight Rules
MVFR
Cloud Levels
  • Broken at 2,800' AGL
Temperature
-13°C / 9°F
Dewpoint
-15°C / 5°F
Humidity
85%
Altimeter
30.26" Hg
Pressure
1024.72 hPa